Nettleton, Mississippi
Current Conditions -  °F | °C
As of 6:53 PM on Monday 22 Dec 2014 (Local Time) from KTUP Reporting Station
Haze Haze  
Wind Chill: 13°   Ceiling: 300
Heat Index: 13°   Visibility: 2mi
Dew Point: 12°   Wind: 12mph
Humidity: 93%   Direction: 190°S
Pressure: 29.69"   Gusts: NA
Location:  34.09°N, 88.62°W
Report Text: KTUP 230053Z 19010KT 2SM BR OVC003 13/12 A2969 RMK AO2 RAB2357E06 SLP053 P0001 T01280117
Loading
Personal Weather Stations






























Interactive Weather Map New forecast layout! Learn more

10-Day Weather Forecast

Advertisements
Track Severe Weather on mobile